Terminal Aerodrome Forecast
Issued by NWS Topeka, KS

Home | Current Version | Previous Version | Graphics & Text | Print | Product List | Glossary On
Versions: 1 2 3 4 5 6 7 8 9 10 11 12 13 14 15 16 17
633
FTUS43 KTOP 210213 AAB
TAFTOP
TAF AMD
KTOP 210213Z 2102/2124 32004KT 4SM BR FEW030 SCT250
     FM210400 32004KT 3SM BR OVC014
     FM210800 32004KT 3SM BR OVC009
     FM211300 31006KT 6SM BR BKN015
     FM211800 30006KT P6SM BKN040=

USA.gov is the U.S. government's official web portal to all federal, state and local government web resources and services.